EVRA Airport Information

Runway Information
Runway 18 Length 10499 ft width 148 ft
Elevation 31 ft Threshold 0 ft Heading 185
Runway 36 Length 10499 ft Width 148 ft
Elevation 34 ft Threshold 0 ft Heading 5
Airport Frequencies
Type APP Name APP Frequency 129.925 MHZ
Type ATIS Name ATIS Frequency 121.2 MHZ
Type GND Name Riga Groun Frequency 118.8 MHZ
Type MISC Name Riga Apron Frequency 131.6 MHZ
Type TWR Name TWR Frequency 118.1 MHZ
Airport Navaids
Type VOR-DME Name Riga Frequency 112050 KHZ
Type VOR-DME Name Riga Frequency 113700 KHZ
Airport Weather Information & NOTAM
ADDS - METARS form results

(1138 UTC 21 May 2019)
Data provider http://aviationweather.gov/metar/data/
 
METAR text: EVRA 211120Z 11007KT 030V170 CAVOK 28/14 Q1010 NOSIG
Conditions at: EVRA (RIGA AIRPORT , LV) observed 1120 UTC 21 May 2019
Temperature: 28.0°C (82°F)
Dewpoint: 14.0°C (57°F) [RH = 42%]
Pressure (altimeter): 29.82 inches Hg (1010.0 mb)
Winds: from the ESE (110 degrees) at 8 MPH (7 knots; 3.6 m/s)
Visibility: 6 or more miles (10+ km)
Ceiling: ceiling and visibility are OK
Clouds: unknown
Weather: no significant weather observed at this time

METAR text: EVRA 211050Z 13004KT 060V170 CAVOK 26/14 Q1010 NOSIG
Conditions at: EVRA (RIGA AIRPORT , LV) observed 1050 UTC 21 May 2019
Temperature: 26.0°C (79°F)
Dewpoint: 14.0°C (57°F) [RH = 48%]
Pressure (altimeter): 29.82 inches Hg (1010.0 mb)
Winds: from the SE (130 degrees) at 5 MPH (4 knots; 2.1 m/s)
Visibility: 6 or more miles (10+ km)
Ceiling: ceiling and visibility are OK
Clouds: unknown
Weather: no significant weather observed at this time

Forecast for: EVRA (RIGA AIRPORT , LV)
Text: TAF EVRA 211103Z 2112/2212 12007KT CAVOK
Forecast period: 1200 to 1900 UTC 21 May 2019
Forecast type: FROM: standard forecast or significant change
Winds: from the ESE (120 degrees) at 8 MPH (7 knots; 3.6 m/s)
Visibility: 6 or more miles 10+ km)
Ceiling: unknown
Clouds: missing
Weather: NSW  (no significant weather)
Text: TEMPO 2112/2119 SCT040CB
Forecast period: 1200 to 1900 UTC 21 May 2019
Forecast type: TEMPORARY: The following changes expected for less than half the time period
Visibility: missing
Ceiling: at least 12,000 feet AGL
Clouds: scattered clouds at 4000 feet AGL
Weather: no significant weather forecast for this period
Text: PROB40
Forecast period: 1200 to 1900 UTC 21 May 2019
Forecast type: TEMPORARY: The following changes expected for less than half the time period
Visibility: missing
Ceiling: unknown
Clouds: missing
Weather: -TSRA  (light rain associated with thunderstorm(s))
Text: TEMPO 2112/2119 -TSRA
Forecast period: 1900 UTC 21 May 2019 to 1200 UTC 22 May 2019
Forecast type: BECOMING: Conditions expected to become as follows by 2100 UTC 21 May 2019
Winds: variable direction winds at 2 MPH (2 knots; 1.0 m/s)
Visibility: 6 or more miles 10+ km)
Ceiling: unknown
Clouds: missing
Weather: NSW  (no significant weather)